sensor_id;sensor_type;location;lat;lon;timestamp;pressure;altitude;pressure_sealevel;temperature;humidity
48796;BME280;34607;48.520;-1.330;2024-03-17T08:23:44;100304.41;;;13.08;100.00
48796;BME280;34607;48.520;-1.330;2024-03-17T08:26:13;100301.78;;;13.05;100.00
48796;BME280;34607;48.520;-1.330;2024-03-17T08:28:40;100302.69;;;13.11;100.00
48796;BME280;34607;48.520;-1.330;2024-03-17T08:31:07;100314.00;;;13.18;100.00
48796;BME280;34607;48.520;-1.330;2024-03-17T08:33:34;100309.63;;;13.09;100.00
48796;BME280;34607;48.520;-1.330;2024-03-17T08:36:03;100301.78;;;13.05;100.00
48796;BME280;34607;48.520;-1.330;2024-03-17T08:38:31;100307.03;;;13.17;100.00
48796;BME280;34607;48.520;-1.330;2024-03-17T08:41:02;100319.16;;;13.15;100.00
48796;BME280;34607;48.520;-1.330;2024-03-17T08:43:30;100326.97;;;13.15;100.00
48796;BME280;34607;48.520;-1.330;2024-03-17T08:45:58;100326.09;;;13.18;100.00
48796;BME280;34607;48.520;-1.330;2024-03-17T08:48:27;100324.41;;;13.24;100.00
48796;BME280;34607;48.520;-1.330;2024-03-17T08:50:56;100311.44;;;13.30;100.00
48796;BME280;34607;48.520;-1.330;2024-03-17T08:53:24;100317.56;;;13.36;100.00
48796;BME280;34607;48.520;-1.330;2024-03-17T08:55:52;100323.66;;;13.42;100.00
48796;BME280;34607;48.520;-1.330;2024-03-17T08:58:20;100324.56;;;13.49;100.00
48796;BME280;34607;48.520;-1.330;2024-03-17T09:00:47;100321.09;;;13.52;100.00
48796;BME280;34607;48.520;-1.330;2024-03-17T09:03:15;100315.91;;;13.55;100.00
48796;BME280;34607;48.520;-1.330;2024-03-17T09:05:43;100336.72;;;13.58;100.00
48796;BME280;34607;48.520;-1.330;2024-03-17T09:08:15;100333.25;;;13.54;100.00
48796;BME280;34607;48.520;-1.330;2024-03-17T09:10:43;100321.13;;;13.56;100.00
48796;BME280;34607;48.520;-1.330;2024-03-17T09:13:13;100328.06;;;13.57;100.00
48796;BME280;34607;48.520;-1.330;2024-03-17T09:15:49;100325.47;;;13.63;100.00
48796;BME280;34607;48.520;-1.330;2024-03-17T09:18:17;100327.28;;;13.80;100.00
48796;BME280;34607;48.520;-1.330;2024-03-17T09:20:44;100326.41;;;13.96;100.00
48796;BME280;34607;48.520;-1.330;2024-03-17T09:23:12;100327.31;;;14.03;100.00
48796;BME280;34607;48.520;-1.330;2024-03-17T09:25:39;100321.25;;;14.15;100.00
48796;BME280;34607;48.520;-1.330;2024-03-17T09:28:06;100328.19;;;14.22;100.00
48796;BME280;34607;48.520;-1.330;2024-03-17T09:30:33;100323.03;;;14.34;100.00
48796;BME280;34607;48.520;-1.330;2024-03-17T09:33:02;100327.34;;;14.48;100.00
48796;BME280;34607;48.520;-1.330;2024-03-17T09:35:30;100335.19;;;14.57;100.00
48796;BME280;34607;48.520;-1.330;2024-03-17T09:37:57;100329.09;;;14.52;100.00
48796;BME280;34607;48.520;-1.330;2024-03-17T09:40:24;100335.22;;;14.58;100.00
48796;BME280;34607;48.520;-1.330;2024-03-17T09:42:51;100343.00;;;14.61;100.00
48796;BME280;34607;48.520;-1.330;2024-03-17T09:45:19;100342.16;;;14.67;100.00
48796;BME280;34607;48.520;-1.330;2024-03-17T09:47:47;100357.78;;;14.63;100.00
48796;BME280;34607;48.520;-1.330;2024-03-17T09:50:15;100352.56;;;14.67;100.00
48796;BME280;34607;48.520;-1.330;2024-03-17T09:52:45;100355.16;;;14.72;100.00
48796;BME280;34607;48.520;-1.330;2024-03-17T09:55:16;100323.91;;;14.66;100.00
48796;BME280;34607;48.520;-1.330;2024-03-17T09:57:43;100340.38;;;14.88;100.00
48796;BME280;34607;48.520;-1.330;2024-03-17T10:00:14;100354.25;;;15.05;100.00
48796;BME280;34607;48.520;-1.330;2024-03-17T10:02:42;100349.88;;;15.18;100.00
48796;BME280;34607;48.520;-1.330;2024-03-17T10:05:20;100339.47;;;15.06;100.00
48796;BME280;34607;48.520;-1.330;2024-03-17T10:07:48;100332.53;;;15.05;100.00
48796;BME280;34607;48.520;-1.330;2024-03-17T10:10:15;100336.88;;;15.10;100.00
48796;BME280;34607;48.520;-1.330;2024-03-17T10:12:49;100342.03;;;15.20;100.00
48796;BME280;34607;48.520;-1.330;2024-03-17T10:15:17;100345.53;;;15.19;100.00
48796;BME280;34607;48.520;-1.330;2024-03-17T10:17:44;100348.16;;;15.17;100.00
48796;BME280;34607;48.520;-1.330;2024-03-17T10:20:12;100355.09;;;15.20;100.00
48796;BME280;34607;48.520;-1.330;2024-03-17T10:23:01;100359.47;;;15.05;100.00
48796;BME280;34607;48.520;-1.330;2024-03-17T10:25:31;100359.50;;;14.96;100.00
48796;BME280;34607;48.520;-1.330;2024-03-17T10:27:59;100362.09;;;15.01;100.00
48796;BME280;34607;48.520;-1.330;2024-03-17T10:30:27;100365.56;;;15.07;100.00
48796;BME280;34607;48.520;-1.330;2024-03-17T10:32:56;100355.13;;;15.06;100.00
48796;BME280;34607;48.520;-1.330;2024-03-17T10:35:29;100363.84;;;15.05;100.00
48796;BME280;34607;48.520;-1.330;2024-03-17T10:37:57;100351.66;;;15.10;100.00
48796;BME280;34607;48.520;-1.330;2024-03-17T10:40:27;100358.53;;;15.34;100.00
48796;BME280;34607;48.520;-1.330;2024-03-17T10:42:57;100361.09;;;15.49;100.00
48796;BME280;34607;48.520;-1.330;2024-03-17T10:45:25;100355.88;;;15.51;100.00
48796;BME280;34607;48.520;-1.330;2024-03-17T10:47:59;100353.28;;;15.46;100.00
48796;BME280;34607;48.520;-1.330;2024-03-17T10:50:30;100355.03;;;15.46;100.00
48796;BME280;34607;48.520;-1.330;2024-03-17T10:53:02;100351.47;;;15.62;100.00
48796;BME280;34607;48.520;-1.330;2024-03-17T10:55:42;100340.16;;;15.68;100.00
48796;BME280;34607;48.520;-1.330;2024-03-17T10:58:23;100338.41;;;15.64;100.00
48796;BME280;34607;48.520;-1.330;2024-03-17T11:00:50;100335.78;;;15.73;100.00
48796;BME280;34607;48.520;-1.330;2024-03-17T11:03:18;100332.22;;;15.83;100.00
48796;BME280;34607;48.520;-1.330;2024-03-17T11:05:48;100323.47;;;15.97;100.00
48796;BME280;34607;48.520;-1.330;2024-03-17T11:08:17;100315.47;;;16.23;100.00
48796;BME280;34607;48.520;-1.330;2024-03-17T11:10:52;100324.06;;;16.36;100.00
48796;BME280;34607;48.520;-1.330;2024-03-17T11:13:24;100322.13;;;16.59;100.00
48796;BME280;34607;48.520;-1.330;2024-03-17T11:15:51;100318.56;;;16.66;100.00
48796;BME280;34607;48.520;-1.330;2024-03-17T11:18:35;100311.56;;;16.69;100.00
48796;BME280;34607;48.520;-1.330;2024-03-17T11:21:04;100318.44;;;16.82;100.00
48796;BME280;34607;48.520;-1.330;2024-03-17T11:23:37;100324.56;;;16.79;100.00
48796;BME280;34607;48.520;-1.330;2024-03-17T11:26:07;100325.47;;;16.74;100.00
48796;BME280;34607;48.520;-1.330;2024-03-17T11:28:51;100321.19;;;16.68;100.00
48796;BME280;34607;48.520;-1.330;2024-03-17T11:31:49;100315.25;;;16.47;100.00
48796;BME280;34607;48.520;-1.330;2024-03-17T11:34:35;100305.66;;;16.50;100.00
48796;BME280;34607;48.520;-1.330;2024-03-17T11:37:02;100313.44;;;16.56;100.00
48796;BME280;34607;48.520;-1.330;2024-03-17T11:39:53;100309.19;;;16.42;100.00
48796;BME280;34607;48.520;-1.330;2024-03-17T11:42:25;100314.34;;;16.50;100.00
48796;BME280;34607;48.520;-1.330;2024-03-17T11:44:59;100308.16;;;16.62;100.00
48796;BME280;34607;48.520;-1.330;2024-03-17T11:47:36;100317.66;;;16.71;100.00
48796;BME280;34607;48.520;-1.330;2024-03-17T11:50:05;100308.88;;;16.78;100.00
48796;BME280;34607;48.520;-1.330;2024-03-17T11:52:33;100312.28;;;16.88;100.00
48796;BME280;34607;48.520;-1.330;2024-03-17T11:55:01;100314.00;;;16.93;100.00
48796;BME280;34607;48.520;-1.330;2024-03-17T11:57:29;100319.91;;;17.11;100.00
48796;BME280;34607;48.520;-1.330;2024-03-17T11:59:56;100305.22;;;16.96;100.00
48796;BME280;34607;48.520;-1.330;2024-03-17T12:02:24;100320.88;;;17.02;100.00
48796;BME280;34607;48.520;-1.330;2024-03-17T12:04:52;100320.06;;;16.97;100.00
48796;BME280;34607;48.520;-1.330;2024-03-17T12:07:20;100322.75;;;16.89;100.00
48796;BME280;34607;48.520;-1.330;2024-03-17T12:09:50;100321.13;;;16.74;100.00
48796;BME280;34607;48.520;-1.330;2024-03-17T12:12:18;100303.72;;;16.69;100.00
48796;BME280;34607;48.520;-1.330;2024-03-17T12:14:48;100313.94;;;16.98;100.00
48796;BME280;34607;48.520;-1.330;2024-03-17T12:17:15;100320.75;;;17.14;100.00
48796;BME280;34607;48.520;-1.330;2024-03-17T12:19:47;100301.63;;;17.06;100.00
48796;BME280;34607;48.520;-1.330;2024-03-17T12:22:16;100309.50;;;17.04;100.00
48796;BME280;34607;48.520;-1.330;2024-03-17T12:24:48;100322.66;;;16.98;100.00
48796;BME280;34607;48.520;-1.330;2024-03-17T12:27:17;100314.06;;;16.85;100.00
48796;BME280;34607;48.520;-1.330;2024-03-17T12:29:44;100285.50;;;16.64;100.00
48796;BME280;34607;48.520;-1.330;2024-03-17T12:32:14;100303.72;;;16.69;100.00
48796;BME280;34607;48.520;-1.330;2024-03-17T12:34:42;100304.66;;;16.64;100.00
48796;BME280;34607;48.520;-1.330;2024-03-17T12:37:15;100296.03;;;16.52;100.00
48796;BME280;34607;48.520;-1.330;2024-03-17T12:39:43;100288.38;;;16.33;100.00
48796;BME280;34607;48.520;-1.330;2024-03-17T12:42:10;100303.13;;;16.39;100.00
48796;BME280;34607;48.520;-1.330;2024-03-17T12:44:40;100300.56;;;16.31;100.00
48796;BME280;34607;48.520;-1.330;2024-03-17T12:47:15;100294.50;;;16.27;100.00
48796;BME280;34607;48.520;-1.330;2024-03-17T12:49:46;100293.66;;;16.27;100.00
48796;BME280;34607;48.520;-1.330;2024-03-17T12:52:19;100296.25;;;16.28;100.00
48796;BME280;34607;48.520;-1.330;2024-03-17T12:54:56;100284.91;;;16.29;100.00
48796;BME280;34607;48.520;-1.330;2024-03-17T12:57:46;100283.09;;;16.36;100.00
48796;BME280;34607;48.520;-1.330;2024-03-17T13:00:31;100284.84;;;16.40;100.00
48796;BME280;34607;48.520;-1.330;2024-03-17T13:02:59;100285.66;;;16.44;100.00
48796;BME280;34607;48.520;-1.330;2024-03-17T13:05:28;100286.53;;;16.43;100.00
48796;BME280;34607;48.520;-1.330;2024-03-17T13:07:55;100289.13;;;16.46;100.00
48796;BME280;34607;48.520;-1.330;2024-03-17T13:10:24;100283.91;;;16.43;100.00
48796;BME280;34607;48.520;-1.330;2024-03-17T13:12:59;100281.19;;;16.55;100.00
48796;BME280;34607;48.520;-1.330;2024-03-17T13:15:27;100265.44;;;16.66;100.00
48796;BME280;34607;48.520;-1.330;2024-03-17T13:17:56;100276.59;;;16.79;100.00
48796;BME280;34607;48.520;-1.330;2024-03-17T13:20:24;100280.16;;;16.72;100.00
48796;BME280;34607;48.520;-1.330;2024-03-17T13:22:53;100272.41;;;16.64;100.00
48796;BME280;34607;48.520;-1.330;2024-03-17T13:25:21;100270.63;;;16.67;100.00
48796;BME280;34607;48.520;-1.330;2024-03-17T13:27:52;100266.28;;;16.66;100.00
48796;BME280;34607;48.520;-1.330;2024-03-17T13:30:20;100271.38;;;16.79;100.00
48796;BME280;34607;48.520;-1.330;2024-03-17T13:32:49;100268.75;;;16.80;100.00
48796;BME280;34607;48.520;-1.330;2024-03-17T13:35:22;100265.13;;;16.95;100.00
48796;BME280;34607;48.520;-1.330;2024-03-17T13:37:51;100273.69;;;17.08;100.00
48796;BME280;34607;48.520;-1.330;2024-03-17T13:40:22;100264.88;;;17.17;100.00
48796;BME280;34607;48.520;-1.330;2024-03-17T13:42:50;100259.59;;;17.20;100.00
48796;BME280;34607;48.520;-1.330;2024-03-17T13:45:19;100257.88;;;17.20;100.00
48796;BME280;34607;48.520;-1.330;2024-03-17T13:47:49;100256.06;;;17.26;100.00
48796;BME280;34607;48.520;-1.330;2024-03-17T13:50:16;100249.78;;;17.37;100.00
48796;BME280;34607;48.520;-1.330;2024-03-17T13:52:44;100249.06;;;17.28;100.00
48796;BME280;34607;48.520;-1.330;2024-03-17T13:55:14;100243.91;;;17.20;100.00
48796;BME280;34607;48.520;-1.330;2024-03-17T13:57:45;100245.88;;;17.02;100.00
48796;BME280;34607;48.520;-1.330;2024-03-17T14:00:14;100233.56;;;17.11;100.00
48796;BME280;34607;48.520;-1.330;2024-03-17T14:02:42;100236.94;;;17.20;100.00
48796;BME280;34607;48.520;-1.330;2024-03-17T14:05:12;100238.47;;;17.35;100.00
48796;BME280;34607;48.520;-1.330;2024-03-17T14:07:40;100238.38;;;17.43;100.00
48796;BME280;34607;48.520;-1.330;2024-03-17T14:10:09;100239.09;;;17.54;100.00
48796;BME280;34607;48.520;-1.330;2024-03-17T14:12:37;100225.84;;;17.67;100.00
48796;BME280;34607;48.520;-1.330;2024-03-17T14:15:07;100209.31;;;17.62;99.63
48796;BME280;34607;48.520;-1.330;2024-03-17T14:17:36;100235.22;;;17.80;99.30
48796;BME280;34607;48.520;-1.330;2024-03-17T14:20:04;100247.50;;;17.76;98.71
48796;BME280;34607;48.520;-1.330;2024-03-17T14:22:35;100256.47;;;17.60;98.00
48796;BME280;34607;48.520;-1.330;2024-03-17T14:25:02;100258.34;;;17.50;98.42
48796;BME280;34607;48.520;-1.330;2024-03-17T14:27:30;100253.16;;;17.47;98.35
48796;BME280;34607;48.520;-1.330;2024-03-17T14:29:57;100246.28;;;17.38;98.00
48796;BME280;34607;48.520;-1.330;2024-03-17T14:32:25;100251.66;;;17.31;96.94
48796;BME280;34607;48.520;-1.330;2024-03-17T14:34:53;100238.59;;;17.28;97.43
48796;BME280;34607;48.520;-1.330;2024-03-17T14:37:20;100228.09;;;17.29;97.30
48796;BME280;34607;48.520;-1.330;2024-03-17T14:39:48;100226.19;;;17.40;97.70
48796;BME280;34607;48.520;-1.330;2024-03-17T14:42:15;100233.03;;;17.49;97.73
48796;BME280;34607;48.520;-1.330;2024-03-17T14:44:42;100227.06;;;17.41;97.44
48796;BME280;34607;48.520;-1.330;2024-03-17T14:47:09;100220.09;;;17.40;96.88
48796;BME280;34607;48.520;-1.330;2024-03-17T14:49:38;100234.88;;;17.44;96.57
48796;BME280;34607;48.520;-1.330;2024-03-17T14:52:05;100237.28;;;17.58;96.53
48796;BME280;34607;48.520;-1.330;2024-03-17T14:54:32;100232.72;;;17.74;96.72
48796;BME280;34607;48.520;-1.330;2024-03-17T14:56:59;100231.88;;;17.72;96.09
48796;BME280;34607;48.520;-1.330;2024-03-17T14:59:26;100225.66;;;17.77;96.15
48796;BME280;34607;48.520;-1.330;2024-03-17T15:01:54;100228.16;;;17.87;95.90
48796;BME280;34607;48.520;-1.330;2024-03-17T15:04:21;100227.16;;;17.95;95.21
48796;BME280;34607;48.520;-1.330;2024-03-17T15:06:49;100235.88;;;17.98;94.53
48796;BME280;34607;48.520;-1.330;2024-03-17T15:09:16;100235.22;;;17.78;94.23
48796;BME280;34607;48.520;-1.330;2024-03-17T15:11:44;100231.00;;;17.70;94.34
48796;BME280;34607;48.520;-1.330;2024-03-17T15:14:12;100235.47;;;17.63;94.77
48796;BME280;34607;48.520;-1.330;2024-03-17T15:16:39;100243.47;;;17.52;95.44
48796;BME280;34607;48.520;-1.330;2024-03-17T15:19:06;100233.94;;;17.50;96.09
48796;BME280;34607;48.520;-1.330;2024-03-17T15:21:33;100234.81;;;17.49;95.58
48796;BME280;34607;48.520;-1.330;2024-03-17T15:24:02;100228.63;;;17.53;94.93
48796;BME280;34607;48.520;-1.330;2024-03-17T15:26:30;100227.94;;;17.40;94.45
48796;BME280;34607;48.520;-1.330;2024-03-17T15:28:57;100222.78;;;17.35;94.44
48796;BME280;34607;48.520;-1.330;2024-03-17T15:31:29;100225.38;;;17.35;94.25
48796;BME280;34607;48.520;-1.330;2024-03-17T15:33:56;100202.88;;;17.22;94.18
48796;BME280;34607;48.520;-1.330;2024-03-17T15:36:23;100208.00;;;17.33;94.02
48796;BME280;34607;48.520;-1.330;2024-03-17T15:38:51;100224.25;;;17.56;94.19
48796;BME280;34607;48.520;-1.330;2024-03-17T15:41:19;100219.59;;;17.75;93.50
48796;BME280;34607;48.520;-1.330;2024-03-17T15:43:46;100208.81;;;17.95;93.64
48796;BME280;34607;48.520;-1.330;2024-03-17T15:46:15;100210.66;;;17.89;93.31
48796;BME280;34607;48.520;-1.330;2024-03-17T15:48:43;100215.59;;;18.09;93.63
48796;BME280;34607;48.520;-1.330;2024-03-17T15:51:11;100217.41;;;18.04;93.14
48796;BME280;34607;48.520;-1.330;2024-03-17T15:53:38;100222.94;;;17.84;93.33
48796;BME280;34607;48.520;-1.330;2024-03-17T15:56:05;100216.31;;;17.59;93.58
48796;BME280;34607;48.520;-1.330;2024-03-17T15:58:34;100217.50;;;17.37;93.87
48796;BME280;34607;48.520;-1.330;2024-03-17T16:01:05;100222.56;;;17.49;94.50
48796;BME280;34607;48.520;-1.330;2024-03-17T16:03:34;100222.56;;;17.51;94.37
48796;BME280;34607;48.520;-1.330;2024-03-17T16:06:04;100230.41;;;17.51;94.25
48796;BME280;34607;48.520;-1.330;2024-03-17T16:08:37;100224.53;;;17.33;94.61
48796;BME280;34607;48.520;-1.330;2024-03-17T16:11:06;100211.63;;;17.21;95.06
48796;BME280;34607;48.520;-1.330;2024-03-17T16:13:38;100183.97;;;17.01;95.41
48796;BME280;34607;48.520;-1.330;2024-03-17T16:16:07;100185.06;;;16.82;96.46
48796;BME280;34607;48.520;-1.330;2024-03-17T16:18:35;100205.88;;;16.93;97.13
48796;BME280;34607;48.520;-1.330;2024-03-17T16:21:06;100212.94;;;16.83;97.91
48796;BME280;34607;48.520;-1.330;2024-03-17T16:23:39;100206.97;;;16.70;98.97
48796;BME280;34607;48.520;-1.330;2024-03-17T16:26:07;100198.16;;;16.77;98.97
48796;BME280;34607;48.520;-1.330;2024-03-17T16:28:37;100200.88;;;16.73;99.46
48796;BME280;34607;48.520;-1.330;2024-03-17T16:31:04;100206.00;;;16.77;99.50
48796;BME280;34607;48.520;-1.330;2024-03-17T16:33:33;100206.94;;;16.73;99.91
48796;BME280;34607;48.520;-1.330;2024-03-17T16:36:01;100202.53;;;16.78;100.00
48796;BME280;34607;48.520;-1.330;2024-03-17T16:38:31;100197.34;;;16.72;100.00
48796;BME280;34607;48.520;-1.330;2024-03-17T16:40:59;100193.91;;;16.70;100.00
48796;BME280;34607;48.520;-1.330;2024-03-17T16:43:41;100204.53;;;16.55;100.00
48796;BME280;34607;48.520;-1.330;2024-03-17T16:46:45;100195.94;;;16.43;100.00
48796;BME280;34607;48.520;-1.330;2024-03-17T16:49:21;100193.28;;;16.45;100.00
48796;BME280;34607;48.520;-1.330;2024-03-17T16:51:51;100165.59;;;16.30;100.00
48796;BME280;34607;48.520;-1.330;2024-03-17T16:54:19;100192.44;;;16.46;100.00
48796;BME280;34607;48.520;-1.330;2024-03-17T16:56:46;100187.22;;;16.43;100.00
48796;BME280;34607;48.520;-1.330;2024-03-17T16:59:15;100176.03;;;16.32;100.00
48796;BME280;34607;48.520;-1.330;2024-03-17T17:01:42;100184.72;;;16.32;100.00
48796;BME280;34607;48.520;-1.330;2024-03-17T17:04:09;100184.75;;;16.27;100.00
48796;BME280;34607;48.520;-1.330;2024-03-17T17:06:36;100180.47;;;16.23;100.00
48796;BME280;34607;48.520;-1.330;2024-03-17T17:09:03;100179.63;;;16.18;100.00
48796;BME280;34607;48.520;-1.330;2024-03-17T17:11:31;100169.22;;;16.15;100.00
48796;BME280;34607;48.520;-1.330;2024-03-17T17:13:58;100179.66;;;16.15;100.00
48796;BME280;34607;48.520;-1.330;2024-03-17T17:16:26;100183.22;;;16.08;100.00
48796;BME280;34607;48.520;-1.330;2024-03-17T17:18:58;100179.69;;;16.10;100.00
48796;BME280;34607;48.520;-1.330;2024-03-17T17:21:26;100184.03;;;16.15;100.00
48796;BME280;34607;48.520;-1.330;2024-03-17T17:23:54;100160.66;;;15.98;100.00
48796;BME280;34607;48.520;-1.330;2024-03-17T17:26:23;100192.81;;;16.07;100.00
48796;BME280;34607;48.520;-1.330;2024-03-17T17:28:53;100188.47;;;16.05;100.00
48796;BME280;34607;48.520;-1.330;2024-03-17T17:31:21;100192.94;;;15.90;100.00
48796;BME280;34607;48.520;-1.330;2024-03-17T17:33:50;100193.84;;;15.83;100.00
48796;BME280;34607;48.520;-1.330;2024-03-17T17:36:17;100191.28;;;15.80;100.00
48796;BME280;34607;48.520;-1.330;2024-03-17T17:38:44;100170.41;;;15.72;100.00
48796;BME280;34607;48.520;-1.330;2024-03-17T17:41:12;100181.72;;;15.76;100.00
48796;BME280;34607;48.520;-1.330;2024-03-17T17:43:40;100192.16;;;15.76;100.00
48796;BME280;34607;48.520;-1.330;2024-03-17T17:46:08;100184.38;;;15.70;100.00
48796;BME280;34607;48.520;-1.330;2024-03-17T17:48:35;100180.91;;;15.66;100.00
48796;BME280;34607;48.520;-1.330;2024-03-17T17:51:05;100187.91;;;15.60;100.00
48796;BME280;34607;48.520;-1.330;2024-03-17T17:53:32;100192.31;;;15.54;100.00
48796;BME280;34607;48.520;-1.330;2024-03-17T17:56:03;100194.94;;;15.51;100.00
48796;BME280;34607;48.520;-1.330;2024-03-17T17:58:32;100202.78;;;15.48;100.00
48796;BME280;34607;48.520;-1.330;2024-03-17T18:00:59;100189.75;;;15.44;100.00
48796;BME280;34607;48.520;-1.330;2024-03-17T18:03:27;100204.50;;;15.51;100.00
48796;BME280;34607;48.520;-1.330;2024-03-17T18:05:55;100188.91;;;15.42;100.00
48796;BME280;34607;48.520;-1.330;2024-03-17T18:08:24;100199.31;;;15.43;100.00
48796;BME280;34607;48.520;-1.330;2024-03-17T18:10:52;100174.22;;;15.22;100.00
48796;BME280;34607;48.520;-1.330;2024-03-17T18:13:20;100184.59;;;15.31;100.00
48796;BME280;34607;48.520;-1.330;2024-03-17T18:15:55;100171.63;;;15.21;100.00
48796;BME280;34607;48.520;-1.330;2024-03-17T18:18:22;100161.28;;;15.07;100.00
48796;BME280;34607;48.520;-1.330;2024-03-17T18:20:51;100169.03;;;15.14;100.00
48796;BME280;34607;48.520;-1.330;2024-03-17T18:23:18;100168.25;;;15.06;100.00
48796;BME280;34607;48.520;-1.330;2024-03-17T18:25:48;100127.47;;;14.82;100.00
48796;BME280;34607;48.520;-1.330;2024-03-17T18:28:16;100172.56;;;15.09;100.00
48796;BME280;34607;48.520;-1.330;2024-03-17T18:30:43;100195.97;;;15.20;100.00
48796;BME280;34607;48.520;-1.330;2024-03-17T18:33:11;100177.72;;;15.20;100.00
48796;BME280;34607;48.520;-1.330;2024-03-17T18:35:45;100187.28;;;15.16;100.00
48796;BME280;34607;48.520;-1.330;2024-03-17T18:38:12;100177.78;;;15.10;100.00
48796;BME280;34607;48.520;-1.330;2024-03-17T18:40:39;100177.84;;;14.96;100.00
48796;BME280;34607;48.520;-1.330;2024-03-17T18:43:08;100183.91;;;14.98;100.00
48796;BME280;34607;48.520;-1.330;2024-03-17T18:45:35;100183.06;;;14.92;100.00
48796;BME280;34607;48.520;-1.330;2024-03-17T18:48:02;100190.88;;;14.90;100.00
48796;BME280;34607;48.520;-1.330;2024-03-17T18:50:29;100197.84;;;14.93;100.00
48796;BME280;34607;48.520;-1.330;2024-03-17T18:52:56;100172.69;;;14.78;100.00
48796;BME280;34607;48.520;-1.330;2024-03-17T18:55:24;100196.94;;;14.95;100.00
48796;BME280;34607;48.520;-1.330;2024-03-17T18:57:51;100203.91;;;14.92;100.00
48796;BME280;34607;48.520;-1.330;2024-03-17T19:00:20;100199.59;;;14.86;100.00
48796;BME280;34607;48.520;-1.330;2024-03-17T19:02:47;100190.03;;;14.84;100.00
48796;BME280;34607;48.520;-1.330;2024-03-17T19:05:15;100206.53;;;14.87;100.00
48796;BME280;34607;48.520;-1.330;2024-03-17T19:07:43;100176.22;;;14.68;100.00
48796;BME280;34607;48.520;-1.330;2024-03-17T19:10:11;100195.28;;;14.79;100.00
48796;BME280;34607;48.520;-1.330;2024-03-17T19:12:38;100213.53;;;14.77;100.00
48796;BME280;34607;48.520;-1.330;2024-03-17T19:15:06;100217.00;;;14.72;100.00
48796;BME280;34607;48.520;-1.330;2024-03-17T19:17:36;100218.75;;;14.71;100.00
48796;BME280;34607;48.520;-1.330;2024-03-17T19:20:03;100191.84;;;14.63;100.00
48796;BME280;34607;48.520;-1.330;2024-03-17T19:22:38;100209.22;;;14.64;100.00
48796;BME280;34607;48.520;-1.330;2024-03-17T19:25:05;100216.16;;;14.70;100.00
48796;BME280;34607;48.520;-1.330;2024-03-17T19:27:35;100217.91;;;14.71;100.00
48796;BME280;34607;48.520;-1.330;2024-03-17T19:30:03;100215.31;;;14.61;100.00
48796;BME280;34607;48.520;-1.330;2024-03-17T19:32:31;100217.00;;;14.73;100.00
48796;BME280;34607;48.520;-1.330;2024-03-17T19:35:00;100214.44;;;14.70;100.00
48796;BME280;34607;48.520;-1.330;2024-03-17T19:37:29;100216.16;;;14.70;100.00
48796;BME280;34607;48.520;-1.330;2024-03-17T19:39:56;100221.38;;;14.71;100.00
48796;BME280;34607;48.520;-1.330;2024-03-17T19:42:23;100211.84;;;14.67;100.00
48796;BME280;34607;48.520;-1.330;2024-03-17T19:44:50;100219.63;;;14.72;100.00
48796;BME280;34607;48.520;-1.330;2024-03-17T19:47:20;100212.69;;;14.71;100.00
48796;BME280;34607;48.520;-1.330;2024-03-17T19:49:50;100215.31;;;14.68;100.00
48796;BME280;34607;48.520;-1.330;2024-03-17T19:52:19;100218.75;;;14.57;100.00
48796;BME280;34607;48.520;-1.330;2024-03-17T19:54:46;100216.19;;;14.59;100.00
48796;BME280;34607;48.520;-1.330;2024-03-17T19:57:13;100208.38;;;14.62;100.00
48796;BME280;34607;48.520;-1.330;2024-03-17T19:59:41;100215.31;;;14.57;100.00
48796;BME280;34607;48.520;-1.330;2024-03-17T20:02:11;100224.88;;;14.55;100.00
48796;BME280;34607;48.520;-1.330;2024-03-17T20:04:38;100207.53;;;14.45;100.00
48796;BME280;34607;48.520;-1.330;2024-03-17T20:07:08;100220.50;;;14.48;100.00
48796;BME280;34607;48.520;-1.330;2024-03-17T20:09:38;100221.41;;;14.50;100.00
48796;BME280;34607;48.520;-1.330;2024-03-17T20:12:06;100223.97;;;14.53;100.00
48796;BME280;34607;48.520;-1.330;2024-03-17T20:14:36;100209.25;;;14.49;100.00
48796;BME280;34607;48.520;-1.330;2024-03-17T20:17:03;100224.88;;;14.53;100.00
48796;BME280;34607;48.520;-1.330;2024-03-17T20:19:33;100232.66;;;14.58;100.00
48796;BME280;34607;48.520;-1.330;2024-03-17T20:22:00;100232.66;;;14.58;100.00
48796;BME280;34607;48.520;-1.330;2024-03-17T20:24:28;100242.25;;;14.59;100.00
48796;BME280;34607;48.520;-1.330;2024-03-17T20:26:56;100240.50;;;14.59;100.00
48796;BME280;34607;48.520;-1.330;2024-03-17T20:29:23;100224.88;;;14.55;100.00
48796;BME280;34607;48.520;-1.330;2024-03-17T20:31:50;100220.50;;;14.52;100.00
48796;BME280;34607;48.520;-1.330;2024-03-17T20:34:17;100237.88;;;14.58;100.00
48796;BME280;34607;48.520;-1.330;2024-03-17T20:36:44;100230.94;;;14.54;100.00
48796;BME280;34607;48.520;-1.330;2024-03-17T20:39:11;100238.75;;;14.54;100.00
48796;BME280;34607;48.520;-1.330;2024-03-17T20:41:41;100241.34;;;14.48;100.00
48796;BME280;34607;48.520;-1.330;2024-03-17T20:44:10;100231.81;;;14.40;100.00
48796;BME280;34607;48.520;-1.330;2024-03-17T20:46:37;100236.19;;;14.43;100.00
48796;BME280;34607;48.520;-1.330;2024-03-17T20:49:04;100232.69;;;14.41;100.00
48796;BME280;34607;48.520;-1.330;2024-03-17T20:51:31;100232.72;;;14.36;100.00
48796;BME280;34607;48.520;-1.330;2024-03-17T20:53:58;100232.69;;;14.33;100.00
48796;BME280;34607;48.520;-1.330;2024-03-17T20:56:25;100231.81;;;14.36;100.00
48796;BME280;34607;48.520;-1.330;2024-03-17T20:58:52;100229.25;;;14.34;100.00
48796;BME280;34607;48.520;-1.330;2024-03-17T21:01:21;100211.00;;;14.22;100.00
48796;BME280;34607;48.520;-1.330;2024-03-17T21:03:49;100235.31;;;14.30;100.00
48796;BME280;34607;48.520;-1.330;2024-03-17T21:06:16;100230.09;;;14.30;100.00